KHLB/HLB METAR and TAF weather

Enter ICAO airport designator
Station Type Date Time Source
KHLB METAR 2019/05/25 10:45 UTC NOAA

KHLB 251045Z AUTO 00000KT 10SM CLR 19/19 A3004 RMK A01


Station Type Date Time Source
KHLB Decoded METAR 2019/05/25 10:45 UTC NOAA

Station name not available
May 25, 2019 - 06:45 AM EDT / 2019.05.25 1045 UTC
Wind: Calm:0
Visibility: 10 mile(s):0
Sky conditions: clear
Temperature: 66 F (19 C)
Dew Point: 66 F (19 C)
Relative Humidity: 100%
Pressure (altimeter): 30.04 in. Hg (1017 hPa)
ob: KHLB 251045Z AUTO 00000KT 10SM CLR 19/19 A3004 RMK A01
cycle: 11

Station Type Date Time Source
KHLB TAF UTC NOAA

Error!

Example: see airport list